createdAt,value
2022-10-24T00:10:25.950Z,1008.49895283338
2022-10-24T00:17:31.546Z,1008.5590464485506
2022-10-24T00:24:58.175Z,1008.6364769488489
2022-10-24T00:32:24.246Z,1008.6558550493111
2022-10-24T00:43:44.272Z,1008.6310288500022
2022-10-24T00:51:34.122Z,1008.6023024693746
2022-10-24T00:59:02.881Z,1008.4915851084122
2022-10-24T01:06:39.850Z,1008.5024895188943
2022-10-24T01:13:58.062Z,1008.4979771259714
2022-10-24T01:21:19.294Z,1008.4723533325586
2022-10-24T01:28:57.465Z,1008.4341867003318
2022-10-24T01:36:09.917Z,1008.3955882602561
2022-10-24T01:43:48.547Z,1008.266878482059
2022-10-24T01:56:07.778Z,1008.2389180997196
2022-10-24T02:03:39.974Z,1008.1255903050089
2022-10-24T02:11:01.230Z,1008.1167945322103
2022-10-24T02:18:24.462Z,1008.0508774052809
2022-10-24T02:26:13.688Z,1007.9628521891653
2022-10-24T02:33:53.047Z,1007.8225660098614
2022-10-24T02:41:22.242Z,1007.7682111501074
2022-10-24T02:55:23.132Z,1007.6242267716938
2022-10-24T03:03:13.629Z,1007.5829668376838
2022-10-24T03:11:12.355Z,1007.4991234488186
2022-10-24T03:18:26.231Z,1007.3805888071645
2022-10-24T03:25:49.405Z,1007.4109587427671
2022-10-24T03:32:55.075Z,1007.3970873197688
2022-10-24T03:40:21.356Z,1007.220016340242
2022-10-24T03:47:31.633Z,1007.1844110120618
2022-10-24T03:55:04.216Z,1007.2006997014809
2022-10-24T04:02:21.025Z,1007.234441947148
2022-10-24T04:09:33.514Z,1007.1783154870814
2022-10-24T04:17:09.259Z,1007.1531912655544
2022-10-24T04:25:01.619Z,1007.2283124079302
2022-10-24T04:32:38.893Z,1007.2234018096785
2022-10-24T04:40:12.320Z,1007.2960877177227
2022-10-24T04:47:41.972Z,1007.2211678077313
2022-10-24T04:55:27.450Z,1007.2074705310184
2022-10-24T05:03:03.241Z,1007.18934392249
2022-10-24T05:21:49.120Z,1007.2699104327065
2022-10-24T05:32:05.487Z,1007.2548501152478
2022-10-24T05:38:34.575Z,1007.2232876941904
2022-10-24T05:48:12.051Z,1007.1056799089192
2022-10-24T05:54:55.086Z,1007.0342938596232
2022-10-24T06:01:36.928Z,1007.0156945828722
2022-10-24T06:08:09.481Z,1007.0427540581045
2022-10-24T06:16:54.473Z,1007.0808743180793
2022-10-24T06:30:21.485Z,1007.1557536715471
2022-10-24T06:42:28.871Z,1007.2266388888557
2022-10-24T06:48:56.545Z,1007.2378264457567
2022-10-24T06:55:27.443Z,1007.2528909656852
2022-10-24T07:03:37.855Z,1007.3315087856414
2022-10-24T07:10:08.105Z,1007.4733269406472
2022-10-24T07:16:46.389Z,1007.5555875771862
2022-10-24T07:23:15.260Z,1007.6162220156875
2022-10-24T07:29:58.559Z,1007.6970821607491
2022-10-24T07:39:52.735Z,1007.7406773405661
2022-10-24T07:46:20.480Z,1007.781887388106
2022-10-24T07:52:47.826Z,1007.7929876961047
2022-10-24T07:59:37.086Z,1007.7927879742779
2022-10-24T08:06:08.322Z,1007.7861647676004
2022-10-24T08:12:35.611Z,1007.7614097273932
2022-10-24T08:19:03.622Z,1007.7294577617994
2022-10-24T08:25:43.787Z,1007.6539009343436
2022-10-24T08:40:21.103Z,1007.5700049816872
2022-10-24T08:46:48.831Z,1007.5101077059049
2022-10-24T08:53:16.681Z,1007.5411510795147
2022-10-24T08:59:44.235Z,1007.5022274976429
2022-10-24T09:06:11.545Z,1007.4125952332048
2022-10-24T09:12:38.986Z,1007.4232467888
2022-10-24T09:19:06.838Z,1007.4873261293938
2022-10-24T09:25:41.419Z,1007.4603640276309
2022-10-24T09:35:54.683Z,1007.4327955387313
2022-10-24T09:42:21.823Z,1007.5113682685993
2022-10-24T09:48:49.725Z,1007.5286123482683
2022-10-24T09:55:16.837Z,1007.5345565291666
2022-10-24T10:07:49.715Z,1007.6257046792922
2022-10-24T10:14:17.967Z,1007.6311151236089
2022-10-24T10:20:46.099Z,1007.7063565525692
2022-10-24T10:27:22.209Z,1007.7735106400897
2022-10-24T10:33:50.377Z,1007.7507500365241
2022-10-24T10:40:18.736Z,1007.7698648988301
2022-10-24T10:46:46.485Z,1007.7236276090226
2022-10-24T10:53:14.373Z,1007.7527984007513
2022-10-24T10:59:42.342Z,1007.739780843943
2022-10-24T11:06:09.818Z,1007.7456296998404
2022-10-24T11:12:38.286Z,1007.7677319887621
2022-10-24T11:19:07.131Z,1007.8267479430091
2022-10-24T11:28:14.173Z,1007.9490207854972
2022-10-24T11:39:07.944Z,1007.9464700769428
2022-10-24T11:54:47.251Z,1008.0468068235592
2022-10-24T12:01:15.165Z,1008.0700792240308
2022-10-24T12:07:42.424Z,1008.090490373262
2022-10-24T12:14:10.587Z,1008.1303453883701
2022-10-24T12:20:38.151Z,1008.2091371512956
2022-10-24T12:27:13.161Z,1008.2454881895395
2022-10-24T12:33:40.948Z,1008.2215088696007
2022-10-24T12:40:08.866Z,1008.1781282151873
2022-10-24T12:48:19.262Z,1008.3437971390238
2022-10-24T12:54:48.077Z,1008.3664710336488
2022-10-24T13:01:17.110Z,1008.340246586897
2022-10-24T13:07:48.569Z,1008.4091032120006
2022-10-24T13:14:19.199Z,1008.4327053885313
2022-10-24T13:30:56.086Z,1008.4772940593601
2022-10-24T13:37:23.302Z,1008.490641434819
2022-10-24T13:43:51.561Z,1008.4977946471463
2022-10-24T13:50:18.892Z,1008.5378707237238
2022-10-24T13:56:46.487Z,1008.6462487120798
2022-10-24T14:03:14.031Z,1008.6653841128245
2022-10-24T14:11:19.776Z,1008.6777900218178
2022-10-24T14:17:50.585Z,1008.7058757582336
2022-10-24T14:24:29.525Z,1008.7059898902553
2022-10-24T14:30:58.192Z,1008.6661346427435
2022-10-24T14:37:26.329Z,1008.7744407302191
2022-10-24T14:43:55.213Z,1008.8994460635619
2022-10-24T15:00:43.481Z,1008.9780800076136
2022-10-24T15:07:11.241Z,1008.9715177562344
2022-10-24T15:13:39.547Z,1008.9781420203011
2022-10-24T15:20:07.157Z,1009.073621222258
2022-10-24T15:26:49.670Z,1009.1427586587639
2022-10-24T15:33:18.185Z,1009.2102003439102
2022-10-24T15:43:56.370Z,1009.2811255218472
2022-10-24T15:50:24.427Z,1009.3562966740327
2022-10-24T15:56:52.734Z,1009.4134122894884
2022-10-24T16:03:20.787Z,1009.5473421943241
2022-10-24T16:18:51.552Z,1009.6759485850507
2022-10-24T16:29:44.341Z,1009.6415066844212
2022-10-24T16:36:14.915Z,1009.6548303004566
2022-10-24T16:48:08.633Z,1009.8547620544163
2022-10-24T16:55:43.041Z,1009.8967850065783
2022-10-24T17:02:11.294Z,1009.9255897408142
2022-10-24T17:08:39.469Z,1009.9610197851757
2022-10-24T17:15:07.979Z,1009.9575422463571
2022-10-24T17:21:36.120Z,1010.0190033103055
2022-10-24T17:28:18.290Z,1010.1625643031564
2022-10-24T17:34:45.615Z,1010.2647472393645
2022-10-24T17:41:13.833Z,1010.3261873615926
2022-10-24T17:51:24.779Z,1010.4087947207958
2022-10-24T17:57:54.312Z,1010.4329217400639
2022-10-24T18:04:24.783Z,1010.4751045267136
2022-10-24T18:16:17.753Z,1010.4872199588661
2022-10-24T18:28:46.165Z,1010.520799575334
2022-10-24T18:35:19.615Z,1010.5883111058936
2022-10-24T18:41:48.499Z,1010.6559558804466
2022-10-24T18:48:20.347Z,1010.7758354337498
2022-10-24T18:54:51.540Z,1010.7793097534638
2022-10-24T19:01:23.649Z,1010.8422366471301
2022-10-24T19:07:53.281Z,1010.8568649055221
2022-10-24T19:21:51.383Z,1010.8435647623324
2022-10-24T19:28:23.403Z,1010.855904345918
2022-10-24T19:34:57.181Z,1010.930135672853
2022-10-24T19:41:34.729Z,1010.9641452506457
2022-10-24T19:48:06.933Z,1010.9404204037191
2022-10-24T19:54:39.313Z,1010.9403422501678
2022-10-24T20:01:13.021Z,1011.0353578326758
2022-10-24T20:24:47.111Z,1011.2510735855144
2022-10-24T20:31:40.221Z,1011.2792912232698
2022-10-24T20:38:34.622Z,1011.3439985227606
2022-10-24T20:46:19.353Z,1011.4367684498432
2022-10-24T20:52:48.857Z,1011.4921052554866
2022-10-24T21:04:03.864Z,1011.558766334566
2022-10-24T21:10:34.470Z,1011.6228773750667
2022-10-24T21:17:02.400Z,1011.6741698402053
2022-10-24T21:23:32.181Z,1011.7447447610618
2022-10-24T21:30:14.829Z,1011.8161172003856
2022-10-24T21:37:55.259Z,1011.9056527367181
2022-10-24T21:44:22.923Z,1011.9298943499435
2022-10-24T21:50:50.458Z,1011.9362918532595
2022-10-24T21:58:31.531Z,1011.9710746023019
2022-10-24T22:05:00.034Z,1012.0141195443865
2022-10-24T22:11:28.512Z,1011.9941699062042
2022-10-24T22:17:56.506Z,1012.019299681014
2022-10-24T22:24:24.234Z,1012.0600502486833
2022-10-24T22:42:40.199Z,1012.1646906112386
2022-10-24T23:00:38.587Z,1012.2414463819483
2022-10-24T23:07:11.703Z,1012.3077825463804
2022-10-24T23:13:40.606Z,1012.349421119134
2022-10-24T23:23:55.400Z,1012.3960962923178
2022-10-24T23:31:07.465Z,1012.4511066888363
2022-10-24T23:37:38.730Z,1012.4898722314013
2022-10-24T23:44:09.070Z,1012.4645419319014
2022-10-24T23:50:39.106Z,1012.4717808830404
